createdAt,value
2023-03-10T00:00:31.476Z,96250.66
2023-03-10T00:02:58.070Z,96260.00
2023-03-10T00:05:24.919Z,96236.38
2023-03-10T00:07:51.719Z,96257.59
2023-03-10T00:10:19.208Z,96249.38
2023-03-10T00:12:45.964Z,96253.03
2023-03-10T00:15:12.724Z,96243.97
2023-03-10T00:17:39.908Z,96240.63
2023-03-10T00:20:08.220Z,96247.44
2023-03-10T00:22:35.302Z,96251.47
2023-03-10T00:25:02.023Z,96240.16
2023-03-10T00:27:28.704Z,96236.50
2023-03-10T00:29:56.058Z,96230.97
2023-03-10T00:32:23.044Z,96230.28
2023-03-10T00:34:49.701Z,96226.78
2023-03-10T00:37:16.743Z,96230.41
2023-03-10T00:39:43.461Z,96227.63
2023-03-10T00:42:10.274Z,96231.94
2023-03-10T00:44:37.061Z,96234.63
2023-03-10T00:47:03.813Z,96236.75
2023-03-10T00:49:30.478Z,96238.94
2023-03-10T00:51:57.089Z,96227.63
2023-03-10T00:54:23.740Z,96224.44
2023-03-10T00:56:50.444Z,96213.34
2023-03-10T00:59:17.191Z,96219.50
2023-03-10T01:01:43.962Z,96218.91
2023-03-10T01:04:16.270Z,96194.47
2023-03-10T01:06:44.494Z,96200.47
2023-03-10T01:09:11.309Z,96210.53
2023-03-10T01:11:37.958Z,96188.53
2023-03-10T01:14:07.115Z,96185.00
2023-03-10T01:16:34.156Z,96184.63
2023-03-10T01:19:01.142Z,96182.72
2023-03-10T01:21:31.332Z,96181.72
2023-03-10T01:23:59.869Z,96172.63
2023-03-10T01:26:26.531Z,96172.00
2023-03-10T01:28:53.234Z,96168.97
2023-03-10T01:31:20.098Z,96167.13
2023-03-10T01:33:47.575Z,96166.13
2023-03-10T01:36:18.258Z,96156.72
2023-03-10T01:38:46.626Z,96156.72
2023-03-10T01:41:14.124Z,96148.38
2023-03-10T01:43:45.866Z,96148.97
2023-03-10T01:46:31.746Z,96154.75
2023-03-10T01:49:07.779Z,96146.47
2023-03-10T01:51:35.998Z,96151.47
2023-03-10T01:54:07.180Z,96139.91
2023-03-10T01:56:36.298Z,96177.91
2023-03-10T01:59:03.672Z,96140.19
2023-03-10T02:01:31.705Z,96145.00
2023-03-10T02:04:18.009Z,96147.91
2023-03-10T02:06:46.073Z,96160.34
2023-03-10T02:09:16.766Z,96157.25
2023-03-10T02:11:45.817Z,96153.03
2023-03-10T02:14:12.651Z,96151.44
2023-03-10T02:16:39.599Z,96143.81
2023-03-10T02:19:11.894Z,96125.84
2023-03-10T02:21:51.941Z,96130.25
2023-03-10T02:24:36.062Z,96120.38
2023-03-10T02:27:22.762Z,96104.53
2023-03-10T02:29:59.524Z,96102.06
2023-03-10T02:32:34.502Z,96088.75
2023-03-10T02:35:01.759Z,96069.34
2023-03-10T02:37:32.521Z,96059.28
2023-03-10T02:39:59.832Z,96063.25
2023-03-10T02:42:34.970Z,96065.03
2023-03-10T02:45:03.776Z,96067.88
2023-03-10T02:47:30.618Z,96068.47
2023-03-10T02:49:59.613Z,96051.66
2023-03-10T02:52:34.541Z,96048.38
2023-03-10T02:55:01.243Z,96040.03
2023-03-10T02:57:27.918Z,96043.50
2023-03-10T02:59:54.677Z,96045.25
2023-03-10T03:02:21.375Z,96054.69
2023-03-10T03:04:48.076Z,96052.41
2023-03-10T03:07:14.872Z,96049.63
2023-03-10T03:09:41.583Z,96054.69
2023-03-10T03:12:08.839Z,96051.81
2023-03-10T03:14:35.461Z,96056.59
2023-03-10T03:17:04.650Z,96069.28
2023-03-10T03:19:31.315Z,96062.00
2023-03-10T03:21:58.416Z,96065.50
2023-03-10T03:24:25.223Z,96055.31
2023-03-10T03:26:51.846Z,96058.66
2023-03-10T03:29:23.031Z,96044.38
2023-03-10T03:31:49.992Z,96041.84
2023-03-10T03:34:20.785Z,96049.97
2023-03-10T03:36:49.225Z,96050.97
2023-03-10T03:39:21.546Z,96036.78
2023-03-10T03:41:57.205Z,96033.41
2023-03-10T03:44:26.257Z,96032.81
2023-03-10T03:46:53.254Z,96026.34
2023-03-10T03:49:21.150Z,96019.84
2023-03-10T03:51:48.051Z,96020.78
2023-03-10T03:54:14.822Z,96015.03
2023-03-10T03:56:42.010Z,96016.44
2023-03-10T03:59:10.649Z,96010.59
2023-03-10T04:01:37.611Z,96006.28
2023-03-10T04:04:05.772Z,95996.72
2023-03-10T04:06:32.528Z,96002.47
2023-03-10T04:08:59.381Z,96008.94
2023-03-10T04:11:28.133Z,95993.44
2023-03-10T04:13:54.791Z,95995.13
2023-03-10T04:16:21.896Z,95979.53
2023-03-10T04:18:48.750Z,95982.50
2023-03-10T04:21:17.582Z,95976.00
2023-03-10T04:23:46.117Z,95973.16
2023-03-10T04:26:16.286Z,95961.72
2023-03-10T04:28:43.207Z,95961.63
2023-03-10T04:31:17.605Z,95953.97
2023-03-10T04:33:46.826Z,95951.38
2023-03-10T04:36:14.368Z,95952.66
2023-03-10T04:38:42.356Z,95940.16
2023-03-10T04:41:09.451Z,95940.66
2023-03-10T04:43:42.396Z,95942.56
2023-03-10T04:46:10.070Z,95940.16
2023-03-10T04:48:37.529Z,95947.34
2023-03-10T04:51:07.881Z,95938.34
2023-03-10T04:53:39.836Z,95944.34
2023-03-10T04:56:08.545Z,95928.00
2023-03-10T04:58:37.263Z,95927.19
2023-03-10T05:01:11.520Z,95907.09
2023-03-10T05:03:42.977Z,95931.06
2023-03-10T05:06:16.559Z,95938.94
2023-03-10T05:08:48.096Z,95938.66
2023-03-10T05:11:16.292Z,95930.84
2023-03-10T05:13:43.213Z,95921.41
2023-03-10T05:16:21.121Z,95913.19
2023-03-10T05:18:49.191Z,95919.50
2023-03-10T05:21:21.496Z,95908.28
2023-03-10T05:23:49.236Z,95911.41
2023-03-10T05:26:16.996Z,95902.63
2023-03-10T05:28:44.563Z,95895.22
2023-03-10T05:31:15.319Z,95896.59
2023-03-10T05:33:44.268Z,95904.44
2023-03-10T05:36:13.084Z,95894.38
2023-03-10T05:38:40.652Z,95883.72
2023-03-10T05:41:11.672Z,95865.97
2023-03-10T05:43:39.567Z,95851.81
2023-03-10T05:46:08.504Z,95859.53
2023-03-10T05:48:42.326Z,95854.25
2023-03-10T05:51:12.009Z,95873.09
2023-03-10T05:53:40.282Z,95905.31
2023-03-10T05:56:13.329Z,95967.94
2023-03-10T05:58:41.104Z,95968.75
2023-03-10T06:01:09.948Z,95986.47
2023-03-10T06:03:37.739Z,95976.88
2023-03-10T06:06:09.538Z,95978.66
2023-03-10T06:08:36.388Z,95977.47
2023-03-10T06:11:04.382Z,95975.41
2023-03-10T06:13:31.592Z,95968.06
2023-03-10T06:16:00.846Z,95957.59
2023-03-10T06:18:28.510Z,95948.63
2023-03-10T06:20:56.003Z,95940.53
2023-03-10T06:23:24.413Z,95953.53
2023-03-10T06:26:06.821Z,95947.34
2023-03-10T06:28:36.670Z,95943.69
2023-03-10T06:31:09.633Z,95940.75
2023-03-10T06:33:39.066Z,95931.22
2023-03-10T06:36:06.540Z,95933.28
2023-03-10T06:38:33.263Z,95929.91
2023-03-10T06:40:59.939Z,95928.97
2023-03-10T06:43:26.659Z,95926.28
2023-03-10T06:45:53.394Z,95932.00
2023-03-10T06:48:20.107Z,95926.06
2023-03-10T06:50:49.189Z,95932.28
2023-03-10T06:53:18.397Z,95936.78
2023-03-10T06:55:45.359Z,95931.78
2023-03-10T06:58:12.069Z,95931.78
2023-03-10T07:00:39.701Z,95930.78
2023-03-10T07:03:06.695Z,95930.81
2023-03-10T07:05:33.411Z,95933.25
2023-03-10T07:08:00.097Z,95944.19
2023-03-10T07:10:26.902Z,95942.50
2023-03-10T07:12:56.603Z,95941.69
2023-03-10T07:15:23.303Z,95944.78
2023-03-10T07:17:50.027Z,95962.28
2023-03-10T07:20:17.937Z,95962.13
2023-03-10T07:22:44.694Z,95947.94
2023-03-10T07:25:11.425Z,95960.19
2023-03-10T07:27:38.091Z,95958.00
2023-03-10T07:30:05.592Z,95960.03
2023-03-10T07:32:32.344Z,95966.69
2023-03-10T07:34:59.089Z,95968.09
2023-03-10T07:37:25.703Z,95969.53
2023-03-10T07:39:54.491Z,95971.47
2023-03-10T07:42:21.155Z,95970.88
2023-03-10T07:44:48.017Z,95960.22
2023-03-10T07:47:14.718Z,95968.56
2023-03-10T07:49:46.618Z,95977.09
2023-03-10T07:52:18.215Z,95977.56
2023-03-10T07:54:45.377Z,95975.19
2023-03-10T07:57:15.609Z,95981.91
2023-03-10T07:59:42.980Z,95989.56
2023-03-10T08:02:13.093Z,95983.75
2023-03-10T08:04:42.930Z,95984.00
2023-03-10T08:07:09.902Z,95983.13
2023-03-10T08:09:36.976Z,95970.75
2023-03-10T08:12:04.013Z,95991.81
2023-03-10T08:14:31.716Z,95997.41
2023-03-10T08:16:59.141Z,95988.16
2023-03-10T08:19:27.666Z,95991.72
2023-03-10T08:21:55.918Z,95991.03
2023-03-10T08:24:22.652Z,95981.16
2023-03-10T08:26:49.381Z,95981.81
2023-03-10T08:29:16.736Z,95994.75
2023-03-10T08:31:43.608Z,95973.47
2023-03-10T08:34:10.316Z,95999.59
2023-03-10T08:36:39.134Z,95970.09
2023-03-10T08:39:06.873Z,96002.41
2023-03-10T08:41:40.366Z,96002.84
2023-03-10T08:44:07.126Z,95989.28
2023-03-10T08:46:34.789Z,95977.81
2023-03-10T08:49:01.958Z,95993.25
2023-03-10T08:51:29.084Z,95996.66
2023-03-10T08:53:55.885Z,95984.00
2023-03-10T08:56:23.810Z,95998.28
2023-03-10T08:58:50.562Z,96012.28
2023-03-10T09:01:17.531Z,96004.38
2023-03-10T09:03:45.475Z,96004.63
2023-03-10T09:06:13.762Z,96011.22
2023-03-10T09:08:41.206Z,96012.88
2023-03-10T09:11:09.425Z,96017.22
2023-03-10T09:13:36.268Z,96011.72
2023-03-10T09:16:02.993Z,96020.88
2023-03-10T09:18:29.919Z,96008.47
2023-03-10T09:20:56.857Z,96016.66
2023-03-10T09:23:23.529Z,96006.84
2023-03-10T09:25:50.169Z,96014.44
2023-03-10T09:28:18.765Z,96019.78
2023-03-10T09:30:46.311Z,96012.72
2023-03-10T09:33:18.834Z,96022.50
2023-03-10T09:35:52.828Z,96029.97
2023-03-10T09:38:25.408Z,96024.69
2023-03-10T09:41:08.696Z,96028.78
2023-03-10T09:43:45.080Z,96029.72
2023-03-10T09:46:26.095Z,96031.44
2023-03-10T09:49:04.477Z,96027.19
2023-03-10T09:51:31.610Z,96018.47
2023-03-10T09:54:35.158Z,96017.94
2023-03-10T09:57:04.189Z,96019.31
2023-03-10T09:59:37.534Z,96024.72
2023-03-10T10:02:16.383Z,96034.56
2023-03-10T10:04:43.988Z,96025.19
2023-03-10T10:07:20.879Z,96025.66
2023-03-10T10:09:55.331Z,96026.50
2023-03-10T10:12:25.603Z,96031.19
2023-03-10T10:14:57.956Z,96041.63
2023-03-10T10:18:12.135Z,96038.81
2023-03-10T10:21:00.236Z,96041.81
2023-03-10T10:23:40.436Z,96042.34
2023-03-10T10:26:19.252Z,96041.03
2023-03-10T10:29:00.858Z,96042.41
2023-03-10T10:31:30.679Z,96046.56
2023-03-10T10:34:06.735Z,96041.97
2023-03-10T10:36:36.308Z,96043.69
2023-03-10T10:39:26.192Z,96057.78
2023-03-10T10:41:54.426Z,96050.31
2023-03-10T10:44:21.509Z,96053.09
2023-03-10T10:46:54.032Z,96064.34
2023-03-10T10:49:29.509Z,96055.09
2023-03-10T10:52:17.911Z,96043.00
2023-03-10T10:54:54.195Z,96048.00
2023-03-10T10:57:23.120Z,96052.78
2023-03-10T10:59:49.966Z,96053.31
2023-03-10T11:02:32.260Z,96066.63
2023-03-10T11:05:32.667Z,96071.91
2023-03-10T11:08:19.745Z,96063.13
2023-03-10T11:10:59.162Z,96078.66
2023-03-10T11:13:36.945Z,96076.19
2023-03-10T11:16:18.456Z,96063.94
2023-03-10T11:18:58.578Z,96065.72
2023-03-10T11:21:29.200Z,96069.00
2023-03-10T11:23:55.836Z,96057.13
2023-03-10T11:26:36.553Z,96068.41
2023-03-10T11:29:32.019Z,96078.97
2023-03-10T11:32:09.897Z,96068.84
2023-03-10T11:34:43.457Z,96069.63
2023-03-10T11:37:36.234Z,96055.59
2023-03-10T11:40:43.090Z,96060.88
2023-03-10T11:43:18.195Z,96062.81
2023-03-10T11:45:53.634Z,96061.19
2023-03-10T11:48:36.384Z,96067.28
2023-03-10T11:51:05.357Z,96064.91
2023-03-10T11:53:31.984Z,96052.03
2023-03-10T11:56:00.681Z,96048.69
2023-03-10T11:58:36.339Z,96067.00
2023-03-10T12:01:03.917Z,96059.69
2023-03-10T12:03:42.413Z,96077.47
2023-03-10T12:06:16.053Z,96090.13
2023-03-10T12:08:43.208Z,96075.25
2023-03-10T12:11:16.682Z,96097.38
2023-03-10T12:13:53.094Z,96086.97
2023-03-10T12:16:27.236Z,96086.53
2023-03-10T12:18:57.174Z,96076.34
2023-03-10T12:21:28.041Z,96086.28
2023-03-10T12:23:59.596Z,96090.91
2023-03-10T12:26:38.440Z,96090.56
2023-03-10T12:29:20.228Z,96094.13
2023-03-10T12:31:49.654Z,96086.97
2023-03-10T12:34:24.361Z,96096.78
2023-03-10T12:37:02.958Z,96100.44
2023-03-10T12:39:38.416Z,96076.69
2023-03-10T12:42:35.228Z,96087.22
2023-03-10T12:45:21.233Z,96107.06
2023-03-10T12:47:56.183Z,96109.25
2023-03-10T12:50:47.984Z,96118.78
2023-03-10T12:53:44.219Z,96127.63
2023-03-10T12:56:13.943Z,96141.34
2023-03-10T12:58:49.144Z,96150.47
2023-03-10T13:01:22.445Z,96139.69
2023-03-10T13:03:52.857Z,96149.63
2023-03-10T13:06:39.385Z,96162.50
2023-03-10T13:09:23.272Z,96147.06
2023-03-10T13:12:05.072Z,96146.06
2023-03-10T13:14:40.764Z,96162.16
2023-03-10T13:17:25.217Z,96177.00
2023-03-10T13:20:05.648Z,96189.66
2023-03-10T13:22:33.454Z,96196.28
2023-03-10T13:25:13.137Z,96187.34
2023-03-10T13:27:39.868Z,96181.81
2023-03-10T13:30:12.884Z,96191.38
2023-03-10T13:32:40.134Z,96201.53
2023-03-10T13:35:39.577Z,96201.53
2023-03-10T13:38:21.751Z,96194.69
2023-03-10T13:40:57.911Z,96212.78
2023-03-10T13:43:37.983Z,96229.25
2023-03-10T13:46:16.035Z,96235.72
2023-03-10T13:48:44.653Z,96221.97
2023-03-10T13:51:14.506Z,96256.22
2023-03-10T13:53:44.792Z,96266.56
2023-03-10T13:56:24.670Z,96266.81
2023-03-10T13:58:54.295Z,96294.44
2023-03-10T14:01:27.466Z,96302.00
2023-03-10T14:04:05.925Z,96303.81
2023-03-10T14:06:32.934Z,96292.69
2023-03-10T14:09:18.302Z,96314.03
2023-03-10T14:11:47.911Z,96300.47
2023-03-10T14:14:32.707Z,96325.97
2023-03-10T14:17:02.281Z,96329.69
2023-03-10T14:19:43.907Z,96350.38
2023-03-10T14:22:22.430Z,96352.38
2023-03-10T14:24:49.331Z,96343.97
2023-03-10T14:27:19.212Z,96343.00
2023-03-10T14:29:53.313Z,96349.53
2023-03-10T14:32:20.677Z,96361.56
2023-03-10T14:34:48.303Z,96342.03
2023-03-10T14:37:15.379Z,96368.09
2023-03-10T14:39:42.140Z,96366.31
2023-03-10T14:42:19.472Z,96368.66
2023-03-10T14:44:47.684Z,96360.53
2023-03-10T14:47:14.822Z,96368.38
2023-03-10T14:49:41.727Z,96368.75
2023-03-10T14:52:16.647Z,96378.69
2023-03-10T14:54:43.969Z,96390.34
2023-03-10T14:57:13.707Z,96396.72
2023-03-10T14:59:40.676Z,96408.78
2023-03-10T15:02:17.268Z,96395.28
2023-03-10T15:04:44.005Z,96395.06
2023-03-10T15:07:11.317Z,96402.56
2023-03-10T15:09:38.000Z,96398.34
2023-03-10T15:12:04.988Z,96414.97
2023-03-10T15:14:31.614Z,96409.28
2023-03-10T15:16:58.345Z,96415.22
2023-03-10T15:19:27.368Z,96419.34
2023-03-10T15:21:54.479Z,96427.41
2023-03-10T15:24:21.189Z,96447.72
2023-03-10T15:26:50.673Z,96430.28
2023-03-10T15:29:19.625Z,96428.13
2023-03-10T15:31:46.591Z,96427.97
2023-03-10T15:34:13.574Z,96445.78
2023-03-10T15:36:40.415Z,96446.63
2023-03-10T15:39:07.135Z,96451.19
2023-03-10T15:41:35.474Z,96436.41
2023-03-10T15:44:02.759Z,96448.41
2023-03-10T15:46:29.383Z,96445.06
2023-03-10T15:48:56.391Z,96453.53
2023-03-10T15:51:23.469Z,96447.66
2023-03-10T15:53:50.265Z,96442.22
2023-03-10T15:56:17.022Z,96453.22
2023-03-10T15:58:44.085Z,96459.34
2023-03-10T16:01:18.049Z,96479.28
2023-03-10T16:03:45.116Z,96490.53
2023-03-10T16:06:12.600Z,96531.09
2023-03-10T16:08:40.228Z,96514.13
2023-03-10T16:11:14.976Z,96535.50
2023-03-10T16:13:41.596Z,96546.09
2023-03-10T16:16:09.108Z,96545.78
2023-03-10T16:18:36.137Z,96546.13
2023-03-10T16:21:03.554Z,96553.81
2023-03-10T16:23:32.687Z,96552.56
2023-03-10T16:26:11.639Z,96550.91
2023-03-10T16:28:42.403Z,96565.84
2023-03-10T16:31:10.793Z,96575.22
2023-03-10T16:33:38.001Z,96603.41
2023-03-10T16:36:07.678Z,96579.22
2023-03-10T16:38:35.668Z,96585.09
2023-03-10T16:41:03.429Z,96594.44
2023-03-10T16:43:32.591Z,96594.69
2023-03-10T16:46:09.579Z,96585.59
2023-03-10T16:48:38.988Z,96587.09
2023-03-10T16:51:18.735Z,96606.47
2023-03-10T16:53:46.897Z,96613.94
2023-03-10T16:56:14.280Z,96616.13
2023-03-10T16:58:41.186Z,96637.94
2023-03-10T17:01:08.031Z,96652.34
2023-03-10T17:03:39.480Z,96643.97
2023-03-10T17:06:11.296Z,96624.59
2023-03-10T17:08:38.941Z,96647.09
2023-03-10T17:11:06.793Z,96642.97
2023-03-10T17:13:34.038Z,96649.72
2023-03-10T17:16:00.667Z,96649.38
2023-03-10T17:18:27.373Z,96647.56
2023-03-10T17:20:54.038Z,96669.81
2023-03-10T17:23:23.553Z,96700.13
2023-03-10T17:25:50.458Z,96711.44
2023-03-10T17:28:17.186Z,96716.97
2023-03-10T17:30:43.992Z,96712.53
2023-03-10T17:33:10.695Z,96739.06
2023-03-10T17:35:38.380Z,96743.75
2023-03-10T17:38:05.024Z,96756.31
2023-03-10T17:40:33.687Z,96753.03
2023-03-10T17:43:13.221Z,96770.72
2023-03-10T17:45:56.727Z,96774.03
2023-03-10T17:48:23.578Z,96781.59
2023-03-10T17:50:50.224Z,96798.44
2023-03-10T17:53:17.365Z,96814.34
2023-03-10T17:55:43.993Z,96800.03
2023-03-10T17:58:10.583Z,96821.94
2023-03-10T18:00:37.361Z,96826.94
2023-03-10T18:03:04.227Z,96838.81
2023-03-10T18:05:30.988Z,96854.72
2023-03-10T18:07:59.132Z,96862.66
2023-03-10T18:10:25.870Z,96878.41
2023-03-10T18:12:52.495Z,96884.28
2023-03-10T18:15:19.224Z,96891.63
2023-03-10T18:17:45.808Z,96910.53
2023-03-10T18:20:14.768Z,96924.19
2023-03-10T18:22:41.480Z,96943.88
2023-03-10T18:25:08.784Z,96918.38
2023-03-10T18:27:35.543Z,96946.22
2023-03-10T18:30:02.495Z,96956.53
2023-03-10T18:32:29.573Z,96977.06
2023-03-10T18:35:02.276Z,96964.75
2023-03-10T18:37:32.275Z,96964.34
2023-03-10T18:40:02.209Z,96966.22
2023-03-10T18:42:28.872Z,96972.25
2023-03-10T18:44:55.573Z,96983.13
2023-03-10T18:47:22.289Z,97006.75
2023-03-10T18:49:49.064Z,97002.38
2023-03-10T18:52:16.157Z,97025.84
2023-03-10T18:54:49.067Z,97014.53
2023-03-10T18:57:16.198Z,97015.69
2023-03-10T18:59:42.967Z,97022.50
2023-03-10T19:02:13.698Z,97020.53
2023-03-10T19:04:40.598Z,97010.00
2023-03-10T19:07:08.125Z,97049.22
2023-03-10T19:09:34.867Z,97031.03
2023-03-10T19:12:01.470Z,97048.50
2023-03-10T19:14:28.209Z,97048.44
2023-03-10T19:16:55.080Z,97059.13
2023-03-10T19:19:21.838Z,97071.69
2023-03-10T19:21:48.620Z,97078.50
2023-03-10T19:24:15.399Z,97091.84
2023-03-10T19:26:43.402Z,97108.38
2023-03-10T19:29:10.274Z,97100.19
2023-03-10T19:31:37.120Z,97118.28
2023-03-10T19:34:03.984Z,97146.25
2023-03-10T19:36:30.854Z,97141.97
2023-03-10T19:38:57.710Z,97157.97
2023-03-10T19:41:24.567Z,97159.09
2023-03-10T19:43:51.367Z,97165.13
2023-03-10T19:46:19.013Z,97159.66
2023-03-10T19:48:45.885Z,97178.88
2023-03-10T19:51:20.909Z,97165.47
2023-03-10T19:53:47.882Z,97179.88
2023-03-10T19:56:17.046Z,97193.13
2023-03-10T19:58:45.878Z,97188.19
2023-03-10T20:01:14.744Z,97198.69
2023-03-10T20:03:42.205Z,97201.03
2023-03-10T20:06:09.344Z,97218.63
2023-03-10T20:08:36.324Z,97212.47
2023-03-10T20:11:03.362Z,97217.53
2023-03-10T20:13:31.676Z,97230.66
2023-03-10T20:15:59.083Z,97251.53
2023-03-10T20:18:25.852Z,97258.84
2023-03-10T20:20:52.600Z,97253.41
2023-03-10T20:23:19.559Z,97253.78
2023-03-10T20:25:46.667Z,97265.16
2023-03-10T20:28:14.401Z,97268.44
2023-03-10T20:30:41.388Z,97278.34
2023-03-10T20:33:08.304Z,97297.91
2023-03-10T20:35:35.177Z,97294.63
2023-03-10T20:38:02.119Z,97314.41
2023-03-10T20:40:29.207Z,97312.03
2023-03-10T20:42:59.415Z,97310.28
2023-03-10T20:45:26.857Z,97321.47
2023-03-10T20:47:53.736Z,97322.50
2023-03-10T20:50:20.841Z,97335.72
2023-03-10T20:52:48.406Z,97342.66
2023-03-10T20:55:30.163Z,97343.97
2023-03-10T20:57:59.162Z,97349.78
2023-03-10T21:00:28.365Z,97343.00
2023-03-10T21:02:57.117Z,97355.28
2023-03-10T21:05:26.228Z,97357.41
2023-03-10T21:07:52.987Z,97355.47
2023-03-10T21:10:20.567Z,97356.50
2023-03-10T21:12:47.440Z,97358.28
2023-03-10T21:15:19.381Z,97359.34
2023-03-10T21:17:46.659Z,97372.25
2023-03-10T21:20:17.277Z,97361.97
2023-03-10T21:22:44.499Z,97364.53
2023-03-10T21:25:15.969Z,97375.72
2023-03-10T21:27:44.178Z,97368.78
2023-03-10T21:30:13.393Z,97370.75
2023-03-10T21:32:40.146Z,97373.47
2023-03-10T21:35:07.314Z,97370.94
2023-03-10T21:37:35.710Z,97379.28
2023-03-10T21:40:05.234Z,97385.25
2023-03-10T21:42:31.816Z,97392.56
2023-03-10T21:44:58.467Z,97391.50
2023-03-10T21:47:25.094Z,97405.50
2023-03-10T21:49:52.152Z,97391.47
2023-03-10T21:52:18.795Z,97399.66
2023-03-10T21:54:45.559Z,97404.44
2023-03-10T21:57:12.207Z,97403.72
2023-03-10T21:59:39.190Z,97411.63
2023-03-10T22:02:06.899Z,97408.81
2023-03-10T22:04:34.667Z,97430.19
2023-03-10T22:07:03.948Z,97426.91
2023-03-10T22:09:31.922Z,97438.19
2023-03-10T22:11:58.639Z,97456.34
2023-03-10T22:14:25.330Z,97455.97
2023-03-10T22:16:52.041Z,97462.91
2023-03-10T22:19:19.937Z,97456.41
2023-03-10T22:21:46.568Z,97466.94
2023-03-10T22:24:14.010Z,97463.78
2023-03-10T22:26:40.721Z,97474.56
2023-03-10T22:29:07.385Z,97479.81
2023-03-10T22:31:34.798Z,97492.19
2023-03-10T22:34:01.600Z,97487.97
2023-03-10T22:36:28.305Z,97495.97
2023-03-10T22:38:56.110Z,97502.97
2023-03-10T22:41:22.804Z,97500.50
2023-03-10T22:43:51.726Z,97508.25
2023-03-10T22:46:18.528Z,97498.16
2023-03-10T22:48:45.293Z,97494.72
2023-03-10T22:51:19.909Z,97488.53
2023-03-10T22:53:47.045Z,97488.50
2023-03-10T22:56:13.752Z,97487.75
2023-03-10T22:58:40.753Z,97493.84
2023-03-10T23:01:07.812Z,97492.03
2023-03-10T23:03:35.061Z,97499.06
2023-03-10T23:06:06.552Z,97485.13
2023-03-10T23:08:35.987Z,97506.94
2023-03-10T23:11:03.640Z,97516.47
2023-03-10T23:13:30.349Z,97521.63
2023-03-10T23:15:59.556Z,97541.81
2023-03-10T23:18:26.342Z,97548.72
2023-03-10T23:20:52.997Z,97566.09
2023-03-10T23:23:19.633Z,97553.72
2023-03-10T23:25:48.207Z,97559.09
2023-03-10T23:28:15.704Z,97571.25
2023-03-10T23:30:44.297Z,97558.97
2023-03-10T23:33:17.384Z,97549.41
2023-03-10T23:35:46.135Z,97559.94
2023-03-10T23:38:12.893Z,97575.56
2023-03-10T23:40:39.610Z,97581.75
2023-03-10T23:43:08.012Z,97588.69
2023-03-10T23:45:36.533Z,97580.78
2023-03-10T23:48:06.134Z,97583.47
2023-03-10T23:50:39.428Z,97585.16
2023-03-10T23:53:07.863Z,97567.00
2023-03-10T23:55:37.679Z,97557.44
2023-03-10T23:58:05.142Z,97555.63
